createdAt,value
2018-05-14T00:02:38.414Z,12.39
2018-05-14T00:07:31.738Z,12.44
2018-05-14T00:12:25.059Z,12.30
2018-05-14T00:17:19.126Z,12.38
2018-05-14T00:22:12.423Z,12.41
2018-05-14T00:27:05.733Z,12.55
2018-05-14T00:31:59.055Z,12.56
2018-05-14T00:36:54.546Z,12.48
2018-05-14T00:41:48.609Z,12.42
2018-05-14T00:46:41.943Z,12.48
2018-05-14T00:51:35.252Z,12.54
2018-05-14T00:56:28.604Z,12.52
2018-05-14T01:01:21.899Z,12.61
2018-05-14T01:06:15.227Z,12.33
2018-05-14T01:16:21.703Z,12.30
2018-05-14T01:21:15.099Z,12.33
2018-05-14T01:26:09.060Z,12.30
2018-05-14T01:31:02.428Z,12.35
2018-05-14T01:35:55.752Z,12.34
2018-05-14T01:40:49.088Z,12.23
2018-05-14T01:45:42.405Z,12.22
2018-05-14T01:50:35.719Z,12.37
2018-05-14T01:55:29.793Z,12.40
2018-05-14T02:00:23.095Z,12.35
2018-05-14T02:05:17.194Z,12.36
2018-05-14T02:10:11.256Z,12.34
2018-05-14T02:15:04.611Z,12.10
2018-05-14T02:19:57.915Z,11.99
2018-05-14T02:24:51.261Z,12.00
2018-05-14T02:29:44.592Z,12.01
2018-05-14T02:34:38.732Z,12.15
2018-05-14T02:39:32.048Z,11.99
2018-05-14T02:44:25.433Z,12.00
2018-05-14T02:49:18.760Z,11.99
2018-05-14T02:54:12.074Z,12.12
2018-05-14T02:59:05.427Z,12.19
2018-05-14T03:03:58.803Z,12.23
2018-05-14T03:14:07.148Z,12.29
2018-05-14T03:19:00.438Z,12.26
2018-05-14T03:23:54.359Z,12.18
2018-05-14T03:28:47.671Z,12.12
2018-05-14T03:33:41.869Z,12.07
2018-05-14T03:38:35.942Z,11.79
2018-05-14T03:43:29.244Z,12.02
2018-05-14T03:48:23.331Z,12.01
2018-05-14T03:53:16.667Z,12.04
2018-05-14T03:58:27.558Z,11.78
2018-05-14T04:03:38.459Z,11.86
2018-05-14T04:08:32.682Z,11.98
2018-05-14T04:13:27.282Z,11.97
2018-05-14T04:18:20.608Z,11.99
2018-05-14T04:23:14.044Z,12.06
2018-05-14T04:28:07.509Z,12.20
2018-05-14T04:33:00.885Z,12.02
2018-05-14T04:43:07.149Z,12.13
2018-05-14T04:48:03.590Z,12.16
2018-05-14T04:52:57.103Z,12.15
2018-05-14T04:57:50.528Z,12.16
2018-05-14T05:02:43.908Z,12.43
2018-05-14T05:07:37.392Z,12.39
2018-05-14T05:12:30.821Z,12.41
2018-05-14T05:17:25.003Z,12.36
2018-05-14T05:22:19.985Z,12.37
2018-05-14T05:27:13.418Z,12.29
2018-05-14T05:32:09.116Z,12.42
2018-05-14T05:37:02.553Z,12.48
2018-05-14T05:41:55.910Z,12.58
2018-05-14T05:46:49.285Z,12.51
2018-05-14T05:51:43.430Z,12.64
2018-05-14T05:56:36.889Z,12.48
2018-05-14T06:01:30.281Z,12.47
2018-05-14T06:06:23.777Z,12.55
2018-05-14T06:11:17.177Z,12.54
2018-05-14T06:16:10.699Z,12.64
2018-05-14T06:21:06.557Z,12.40
2018-05-14T06:25:59.894Z,12.37
2018-05-14T06:30:53.983Z,12.43
2018-05-14T06:35:48.197Z,12.35
2018-05-14T06:40:41.490Z,12.44
2018-05-14T06:45:34.797Z,12.35
2018-05-14T06:50:28.084Z,12.36
2018-05-14T06:55:21.577Z,12.36
2018-05-14T07:00:14.918Z,12.47
2018-05-14T07:05:08.235Z,12.69
2018-05-14T07:10:01.554Z,12.78
2018-05-14T07:14:54.879Z,13.03
2018-05-14T07:19:48.390Z,13.05
2018-05-14T07:24:41.807Z,13.04
2018-05-14T07:29:35.081Z,13.23
2018-05-14T07:34:28.982Z,13.33
2018-05-14T07:39:22.295Z,13.23
2018-05-14T07:44:15.609Z,13.21
2018-05-14T07:49:09.758Z,13.31
2018-05-14T07:54:03.143Z,13.48
2018-05-14T07:58:56.474Z,13.40
2018-05-14T08:03:49.861Z,13.51
2018-05-14T08:14:07.556Z,13.20
2018-05-14T08:19:00.936Z,13.72
2018-05-14T08:23:54.480Z,13.71
2018-05-14T08:28:47.932Z,13.66
2018-05-14T08:33:41.266Z,13.50
2018-05-14T08:38:34.717Z,13.55
2018-05-14T08:43:28.874Z,13.35
2018-05-14T08:48:22.176Z,13.21
2018-05-14T08:53:15.510Z,13.38
2018-05-14T08:58:08.813Z,13.41
2018-05-14T09:03:05.770Z,13.23
2018-05-14T09:07:59.165Z,13.18
2018-05-14T09:12:52.617Z,13.39
2018-05-14T09:17:45.935Z,13.37
2018-05-14T09:22:39.288Z,13.43
2018-05-14T09:27:32.624Z,13.38
2018-05-14T09:32:28.937Z,13.44
2018-05-14T09:37:22.339Z,13.42
2018-05-14T09:42:15.636Z,13.47
2018-05-14T09:47:08.970Z,13.66
2018-05-14T09:52:02.280Z,13.42
2018-05-14T09:56:56.441Z,13.57
2018-05-14T10:01:49.890Z,13.43
2018-05-14T10:06:43.414Z,13.34
2018-05-14T10:11:37.348Z,13.33
2018-05-14T10:16:32.548Z,13.40
2018-05-14T10:21:27.890Z,13.63
2018-05-14T10:26:22.061Z,13.81
2018-05-14T10:31:15.403Z,13.81
2018-05-14T10:36:08.765Z,13.82
2018-05-14T10:41:02.083Z,13.97
2018-05-14T10:45:55.428Z,13.88
2018-05-14T10:50:48.765Z,13.90
2018-05-14T10:55:42.844Z,14.09
2018-05-14T11:00:36.186Z,14.30
2018-05-14T11:05:29.533Z,14.35
2018-05-14T11:10:22.910Z,14.20
2018-05-14T11:15:17.266Z,14.34
2018-05-14T11:20:10.622Z,14.75
2018-05-14T11:25:04.237Z,15.28
2018-05-14T11:29:57.552Z,15.67
2018-05-14T11:34:51.001Z,16.05
2018-05-14T11:39:45.177Z,15.74
2018-05-14T11:44:38.770Z,16.24
2018-05-14T11:49:32.153Z,16.35
2018-05-14T11:54:25.535Z,15.56
2018-05-14T11:59:18.953Z,15.48
2018-05-14T12:04:13.973Z,15.23
2018-05-14T12:09:07.445Z,14.96
2018-05-14T12:14:01.641Z,14.61
2018-05-14T12:18:55.758Z,14.33
2018-05-14T12:23:49.102Z,14.36
2018-05-14T12:28:42.480Z,14.43
2018-05-14T12:33:35.830Z,14.35
2018-05-14T12:38:29.911Z,14.40
2018-05-14T12:43:23.236Z,14.16
2018-05-14T12:48:17.472Z,14.12
2018-05-14T12:53:10.808Z,13.95
2018-05-14T12:58:04.158Z,13.94
2018-05-14T13:08:16.095Z,14.76
2018-05-14T13:13:09.511Z,14.76
2018-05-14T13:18:03.611Z,14.70
2018-05-14T13:22:56.975Z,14.84
2018-05-14T13:27:50.837Z,14.87
2018-05-14T13:32:44.170Z,14.75
2018-05-14T13:37:37.583Z,15.18
2018-05-14T13:42:30.851Z,15.05
2018-05-14T13:47:24.946Z,15.14
2018-05-14T13:52:19.118Z,15.21
2018-05-14T13:57:12.500Z,15.49
2018-05-14T14:02:05.838Z,15.31
2018-05-14T14:06:59.299Z,15.15
2018-05-14T14:44:43.266Z,14.43
2018-05-14T14:49:36.588Z,14.60
2018-05-14T14:54:29.992Z,14.49
2018-05-14T14:59:23.346Z,14.42
2018-05-14T15:04:17.295Z,14.48
2018-05-14T15:09:10.728Z,14.52
2018-05-14T15:14:04.786Z,14.36
2018-05-14T15:18:58.710Z,14.42
2018-05-14T15:23:51.998Z,14.24
2018-05-14T15:28:45.329Z,14.21
2018-05-14T15:33:38.628Z,14.17
2018-05-14T15:38:32.687Z,14.11
2018-05-14T15:43:26.015Z,14.01
2018-05-14T15:48:19.333Z,13.92
2018-05-14T15:53:12.622Z,13.97
2018-05-14T15:58:06.750Z,14.03
2018-05-14T16:03:00.048Z,14.08
2018-05-14T16:07:53.338Z,13.89
2018-05-14T16:12:46.631Z,13.87
2018-05-14T16:17:39.968Z,14.00
2018-05-14T16:22:33.268Z,14.14
2018-05-14T16:27:26.561Z,14.40
2018-05-14T16:32:19.851Z,14.68
2018-05-14T16:37:13.201Z,14.37
2018-05-14T16:42:06.521Z,14.14
2018-05-14T16:46:59.908Z,14.14
2018-05-14T16:51:53.995Z,13.91
2018-05-14T16:56:47.310Z,13.69
2018-05-14T17:01:40.603Z,13.65
2018-05-14T17:06:33.890Z,13.60
2018-05-14T17:11:27.410Z,13.59
2018-05-14T17:16:21.472Z,13.50
2018-05-14T17:21:16.019Z,13.54
2018-05-14T17:26:09.338Z,13.57
2018-05-14T17:31:02.696Z,13.68
2018-05-14T17:35:56.075Z,13.61
2018-05-14T17:40:49.691Z,13.68
2018-05-14T17:45:43.011Z,13.69
2018-05-14T17:50:37.104Z,13.69
2018-05-14T17:55:32.584Z,13.62
2018-05-14T18:00:25.948Z,13.65
2018-05-14T18:05:19.269Z,13.63
2018-05-14T18:10:13.296Z,13.65
2018-05-14T18:15:08.895Z,13.58
2018-05-14T18:20:07.695Z,13.70
2018-05-14T18:25:06.558Z,13.48
2018-05-14T18:30:05.992Z,13.47
2018-05-14T18:34:59.295Z,13.37
2018-05-14T18:39:52.681Z,13.39
2018-05-14T18:44:48.253Z,13.36
2018-05-14T18:49:41.562Z,13.33
2018-05-14T18:54:34.860Z,13.33
2018-05-14T18:59:28.178Z,13.38
2018-05-14T19:04:22.600Z,13.26
2018-05-14T19:09:22.711Z,13.32
2018-05-14T19:14:17.866Z,13.07
2018-05-14T19:19:11.167Z,12.73
2018-05-14T19:24:04.540Z,12.64
2018-05-14T19:29:03.286Z,12.49
2018-05-14T19:34:02.922Z,12.56
2018-05-14T19:38:56.988Z,12.63
2018-05-14T19:43:51.001Z,12.51
2018-05-14T19:48:45.271Z,12.53
2018-05-14T19:53:40.786Z,12.50
2018-05-14T19:58:34.112Z,12.41
2018-05-14T20:03:28.275Z,12.23
2018-05-14T20:08:22.269Z,12.16
2018-05-14T20:13:15.621Z,12.23
2018-05-14T20:18:08.924Z,12.15
2018-05-14T20:23:02.263Z,12.10
2018-05-14T20:27:55.559Z,12.06
2018-05-14T20:32:48.871Z,12.04
2018-05-14T20:37:42.203Z,12.07
2018-05-14T20:42:35.541Z,11.93
2018-05-14T20:47:29.633Z,11.98
2018-05-14T20:52:22.976Z,11.94
2018-05-14T20:57:16.286Z,11.84
2018-05-14T21:02:10.377Z,11.76
2018-05-14T21:07:04.456Z,11.62
2018-05-14T21:12:00.122Z,11.63
2018-05-14T21:16:53.824Z,11.53
2018-05-14T21:21:47.120Z,11.38
2018-05-14T21:26:42.097Z,11.46
2018-05-14T21:31:35.407Z,11.50
2018-05-14T21:36:28.743Z,11.62
2018-05-14T21:41:22.071Z,11.66
2018-05-14T21:46:15.382Z,11.67
2018-05-14T21:51:08.680Z,11.50
2018-05-14T21:56:02.777Z,11.55
2018-05-14T22:00:56.068Z,11.52
2018-05-14T22:05:51.157Z,11.41
2018-05-14T22:10:44.455Z,11.52
2018-05-14T22:15:37.759Z,11.59
2018-05-14T22:20:31.243Z,11.63
2018-05-14T22:25:24.551Z,11.72
2018-05-14T22:30:17.893Z,11.71
2018-05-14T22:35:12.935Z,11.67
2018-05-14T22:40:07.044Z,11.66
2018-05-14T22:45:00.402Z,11.64
2018-05-14T22:49:53.728Z,11.63
2018-05-14T22:54:47.042Z,11.69
2018-05-14T22:59:41.176Z,11.65
2018-05-14T23:04:34.509Z,11.65
2018-05-14T23:09:27.763Z,11.62
2018-05-14T23:14:21.089Z,11.64
2018-05-14T23:19:14.382Z,11.71
2018-05-14T23:24:07.756Z,11.67
2018-05-14T23:29:01.071Z,11.53
2018-05-14T23:33:54.371Z,11.67
2018-05-14T23:38:47.666Z,11.65
2018-05-14T23:43:40.984Z,11.68
2018-05-14T23:48:34.319Z,11.62
2018-05-14T23:53:27.617Z,11.67
2018-05-14T23:58:20.932Z,11.63
